Airport ICAO


07:58 UTC

2°C

Clear skies


An affordable passengers' Moving Map for your aircraft. Made for the iPad and the iPhone
More information here

LFPM Villaroche


Melun FRANCE   VFR CAVOK


METAR LFPM 170730Z AUTO 15007KT CAVOK 02/M00 Q1021 0h28min





NOTAMS

OPEN